KMZZ/MZZ METAR and TAF weather

Enter ICAO airport designator
Station Type Date Time Source
KMZZ METAR 2023/01/30 10:15 UTC NOAA

KMZZ 301015Z AUTO 34006KT 10SM SCT008 SCT023 OVC032 M02/M03 A3023 RMK AO2 T10211034


Station Type Date Time Source
KMZZ Decoded METAR 2023/01/30 10:15 UTC NOAA

Station name not available
Jan 30, 2023 - 05:15 AM EST / 2023.01.30 1015 UTC
Wind: from the NNW (340 degrees) at 7 MPH (6 KT):0
Visibility: 10 mile(s):0
Sky conditions: overcast
Temperature: 28.2 F (-2.1 C)
Windchill: 21 F (-6 C):1
Dew Point: 25.9 F (-3.4 C)
Relative Humidity: 90%
Pressure (altimeter): 30.23 in. Hg (1023 hPa)
ob: KMZZ 301015Z AUTO 34006KT 10SM SCT008 SCT023 OVC032 M02/M03 A3023 RMK AO2 T10211034
cycle: 10

Station Type Date Time Source
KMZZ TAF UTC NOAA

Error!

Example: see airport list